sensor_id;sensor_type;location;lat;lon;timestamp;pressure;altitude;pressure_sealevel;temperature;humidity
80798;BME280;70202;52.238;10.680;2023-09-12T00:00:40;99811.44;;;21.08;86.38
80798;BME280;70202;52.238;10.680;2023-09-12T00:01:41;99821.84;;;21.16;86.01
80798;BME280;70202;52.238;10.680;2023-09-12T00:02:41;99820.97;;;21.15;86.23
80798;BME280;70202;52.238;10.680;2023-09-12T00:03:42;99819.19;;;21.14;86.29
80798;BME280;70202;52.238;10.680;2023-09-12T00:04:42;99820.06;;;21.15;86.46
80798;BME280;70202;52.238;10.680;2023-09-12T00:05:51;99810.16;;;21.12;86.55
80798;BME280;70202;52.238;10.680;2023-09-12T00:06:51;99815.53;;;21.14;86.50
80798;BME280;70202;52.238;10.680;2023-09-12T00:07:52;99811.16;;;21.11;86.52
80798;BME280;70202;52.238;10.680;2023-09-12T00:08:54;99810.00;;;21.14;86.49
80798;BME280;70202;52.238;10.680;2023-09-12T00:09:54;99792.13;;;20.97;86.57
80798;BME280;70202;52.238;10.680;2023-09-12T00:11:08;99810.00;;;21.14;86.70
80798;BME280;70202;52.238;10.680;2023-09-12T00:12:14;99820.06;;;21.15;86.55
80798;BME280;70202;52.238;10.680;2023-09-12T00:13:15;99798.88;;;21.04;86.48
80798;BME280;70202;52.238;10.680;2023-09-12T00:14:16;99808.97;;;21.15;86.62
80798;BME280;70202;52.238;10.680;2023-09-12T00:15:17;99797.84;;;21.05;86.36
80798;BME280;70202;52.238;10.680;2023-09-12T00:16:19;99815.41;;;21.15;86.67
80798;BME280;70202;52.238;10.680;2023-09-12T00:17:20;99805.91;;;21.08;86.60
80798;BME280;70202;52.238;10.680;2023-09-12T00:18:20;99817.16;;;21.16;86.88
80798;BME280;70202;52.238;10.680;2023-09-12T00:19:21;99810.75;;;21.16;86.89
80798;BME280;70202;52.238;10.680;2023-09-12T00:20:21;99809.88;;;21.15;86.81
80798;BME280;70202;52.238;10.680;2023-09-12T00:21:21;99811.75;;;21.15;86.83
80798;BME280;70202;52.238;10.680;2023-09-12T00:22:22;99825.59;;;21.15;86.73
80798;BME280;70202;52.238;10.680;2023-09-12T00:23:22;99796.13;;;21.04;86.89
80798;BME280;70202;52.238;10.680;2023-09-12T00:24:23;99817.28;;;21.15;86.84
80798;BME280;70202;52.238;10.680;2023-09-12T00:25:24;99800.63;;;21.05;86.72
80798;BME280;70202;52.238;10.680;2023-09-12T00:26:24;99791.13;;;20.98;86.71
80798;BME280;70202;52.238;10.680;2023-09-12T00:27:24;99804.69;;;21.01;86.96
80798;BME280;70202;52.238;10.680;2023-09-12T00:28:25;99821.22;;;21.12;86.69
80798;BME280;70202;52.238;10.680;2023-09-12T00:29:25;99827.63;;;21.13;86.66
80798;BME280;70202;52.238;10.680;2023-09-12T00:30:26;99820.34;;;21.12;86.73
80798;BME280;70202;52.238;10.680;2023-09-12T00:31:26;99816.72;;;21.11;86.66
80798;BME280;70202;52.238;10.680;2023-09-12T00:32:26;99801.06;;;21.01;86.53
80798;BME280;70202;52.238;10.680;2023-09-12T00:33:27;99817.59;;;21.12;86.62
80798;BME280;70202;52.238;10.680;2023-09-12T00:34:27;99822.25;;;21.11;86.74
80798;BME280;70202;52.238;10.680;2023-09-12T00:35:27;99819.88;;;21.07;86.78
80798;BME280;70202;52.238;10.680;2023-09-12T00:36:28;99822.38;;;21.10;86.77
80798;BME280;70202;52.238;10.680;2023-09-12T00:37:28;99815.34;;;21.06;86.59
80798;BME280;70202;52.238;10.680;2023-09-12T00:38:29;99828.06;;;21.08;86.76
80798;BME280;70202;52.238;10.680;2023-09-12T00:39:29;99813.75;;;21.03;86.68
80798;BME280;70202;52.238;10.680;2023-09-12T00:40:30;99785.44;;;20.90;86.68
80798;BME280;70202;52.238;10.680;2023-09-12T00:41:30;99819.88;;;21.07;86.64
80798;BME280;70202;52.238;10.680;2023-09-12T00:42:31;99797.06;;;20.93;86.83
80798;BME280;70202;52.238;10.680;2023-09-12T00:43:31;99802.50;;;20.95;86.79
80798;BME280;70202;52.238;10.680;2023-09-12T00:44:32;99793.44;;;20.93;86.98
80798;BME280;70202;52.238;10.680;2023-09-12T00:45:32;99812.28;;;20.99;86.85
80798;BME280;70202;52.238;10.680;2023-09-12T00:46:32;99807.88;;;20.96;86.91
80798;BME280;70202;52.238;10.680;2023-09-12T00:47:34;99809.63;;;20.97;87.00
80798;BME280;70202;52.238;10.680;2023-09-12T00:48:37;99796.34;;;20.91;87.05
80798;BME280;70202;52.238;10.680;2023-09-12T00:49:39;99820.28;;;21.02;87.00
80798;BME280;70202;52.238;10.680;2023-09-12T00:50:40;99819.56;;;21.00;86.93
80798;BME280;70202;52.238;10.680;2023-09-12T00:51:42;99822.34;;;21.00;87.06
80798;BME280;70202;52.238;10.680;2023-09-12T00:52:43;99826.13;;;20.99;87.20
80798;BME280;70202;52.238;10.680;2023-09-12T00:53:44;99795.28;;;20.83;87.17
80798;BME280;70202;52.238;10.680;2023-09-12T00:54:44;99796.44;;;20.80;87.11
80798;BME280;70202;52.238;10.680;2023-09-12T00:55:48;99819.63;;;20.89;87.22
80798;BME280;70202;52.238;10.680;2023-09-12T00:56:50;99831.47;;;20.91;87.22
80798;BME280;70202;52.238;10.680;2023-09-12T00:57:52;99825.78;;;20.92;87.33
80798;BME280;70202;52.238;10.680;2023-09-12T00:58:53;99805.47;;;20.82;87.26
80798;BME280;70202;52.238;10.680;2023-09-12T00:59:53;99821.41;;;20.90;87.48
80798;BME280;70202;52.238;10.680;2023-09-12T01:00:55;99819.63;;;20.89;87.25
80798;BME280;70202;52.238;10.680;2023-09-12T01:01:56;99816.88;;;20.89;87.44
80798;BME280;70202;52.238;10.680;2023-09-12T01:02:58;99815.28;;;20.86;87.30
80798;BME280;70202;52.238;10.680;2023-09-12T01:03:58;99817.16;;;20.86;87.45
80798;BME280;70202;52.238;10.680;2023-09-12T01:04:59;99808.97;;;20.84;87.55
80798;BME280;70202;52.238;10.680;2023-09-12T01:05:59;99808.25;;;20.82;87.58
80798;BME280;70202;52.238;10.680;2023-09-12T01:07:00;99805.59;;;20.81;87.76
80798;BME280;70202;52.238;10.680;2023-09-12T01:08:00;99806.78;;;20.78;87.93
80798;BME280;70202;52.238;10.680;2023-09-12T01:09:01;99806.63;;;20.80;87.85
80798;BME280;70202;52.238;10.680;2023-09-12T01:10:01;99804.88;;;20.79;87.71
80798;BME280;70202;52.238;10.680;2023-09-12T01:11:02;99802.38;;;20.76;88.00
80798;BME280;70202;52.238;10.680;2023-09-12T01:12:04;99799.19;;;20.80;87.82
80798;BME280;70202;52.238;10.680;2023-09-12T01:13:05;99788.78;;;20.72;87.78
80798;BME280;70202;52.238;10.680;2023-09-12T01:14:06;99783.00;;;20.76;87.79
80798;BME280;70202;52.238;10.680;2023-09-12T01:15:07;99791.75;;;20.81;87.90
80798;BME280;70202;52.238;10.680;2023-09-12T01:16:13;99793.66;;;20.80;88.08
80798;BME280;70202;52.238;10.680;2023-09-12T01:17:13;99780.38;;;20.74;87.92
80798;BME280;70202;52.238;10.680;2023-09-12T01:18:14;99786.09;;;20.82;88.17
80798;BME280;70202;52.238;10.680;2023-09-12T01:19:15;99769.00;;;20.77;87.98
80798;BME280;70202;52.238;10.680;2023-09-12T01:20:20;99774.88;;;20.84;87.98
80798;BME280;70202;52.238;10.680;2023-09-12T01:26:27;99763.81;;;20.84;87.77
80798;BME280;70202;52.238;10.680;2023-09-12T01:27:39;99769.19;;;20.85;87.69
80798;BME280;70202;52.238;10.680;2023-09-12T01:28:42;99767.44;;;20.84;87.78
80798;BME280;70202;52.238;10.680;2023-09-12T01:29:46;99763.66;;;20.85;87.86
80798;BME280;70202;52.238;10.680;2023-09-12T01:30:48;99768.31;;;20.85;87.90
80798;BME280;70202;52.238;10.680;2023-09-12T01:31:50;99769.19;;;20.85;87.87
80798;BME280;70202;52.238;10.680;2023-09-12T01:32:51;99763.66;;;20.85;88.04
80798;BME280;70202;52.238;10.680;2023-09-12T01:33:56;99760.78;;;20.87;87.90
80798;BME280;70202;52.238;10.680;2023-09-12T01:34:57;99757.56;;;20.82;88.11
80798;BME280;70202;52.238;10.680;2023-09-12T01:35:58;99758.53;;;20.81;87.76
80798;BME280;70202;52.238;10.680;2023-09-12T01:36:58;99763.09;;;20.82;87.73
80798;BME280;70202;52.238;10.680;2023-09-12T01:37:59;99767.44;;;20.84;88.07
80798;BME280;70202;52.238;10.680;2023-09-12T01:38:59;99789.59;;;20.84;87.80
80798;BME280;70202;52.238;10.680;2023-09-12T01:40:00;99798.94;;;20.83;88.14
80798;BME280;70202;52.238;10.680;2023-09-12T01:41:01;99800.63;;;20.75;88.14
80798;BME280;70202;52.238;10.680;2023-09-12T01:42:02;99797.41;;;20.69;87.83
80798;BME280;70202;52.238;10.680;2023-09-12T01:43:03;99813.44;;;20.76;87.97
80798;BME280;70202;52.238;10.680;2023-09-12T01:44:05;99804.69;;;20.70;87.99
80798;BME280;70202;52.238;10.680;2023-09-12T01:45:09;99782.69;;;20.69;88.13
80798;BME280;70202;52.238;10.680;2023-09-12T01:46:10;99776.41;;;20.67;88.06
80798;BME280;70202;52.238;10.680;2023-09-12T01:47:12;99772.59;;;20.68;88.33
80798;BME280;70202;52.238;10.680;2023-09-12T01:48:14;99772.59;;;20.68;88.40
80798;BME280;70202;52.238;10.680;2023-09-12T01:49:17;99762.25;;;20.60;88.58
80798;BME280;70202;52.238;10.680;2023-09-12T01:50:20;99779.00;;;20.68;88.30
80798;BME280;70202;52.238;10.680;2023-09-12T01:51:22;99759.47;;;20.60;88.50
80798;BME280;70202;52.238;10.680;2023-09-12T01:52:27;99780.03;;;20.67;88.47
80798;BME280;70202;52.238;10.680;2023-09-12T01:53:28;99774.31;;;20.59;88.71
80798;BME280;70202;52.238;10.680;2023-09-12T01:54:30;99793.69;;;20.59;88.64
80798;BME280;70202;52.238;10.680;2023-09-12T01:55:31;99796.75;;;20.56;89.02
80798;BME280;70202;52.238;10.680;2023-09-12T01:56:32;99830.00;;;20.66;88.94
80798;BME280;70202;52.238;10.680;2023-09-12T01:57:33;99827.25;;;20.66;89.02
80798;BME280;70202;52.238;10.680;2023-09-12T01:58:34;99812.06;;;20.60;89.06
80798;BME280;70202;52.238;10.680;2023-09-12T01:59:35;99814.28;;;20.66;89.15
80798;BME280;70202;52.238;10.680;2023-09-12T02:00:35;99789.63;;;20.63;89.36
80798;BME280;70202;52.238;10.680;2023-09-12T02:01:36;99788.75;;;20.63;89.00
80798;BME280;70202;52.238;10.680;2023-09-12T02:02:36;99801.03;;;20.70;88.84
80798;BME280;70202;52.238;10.680;2023-09-12T02:03:36;99794.13;;;20.64;89.14
80798;BME280;70202;52.238;10.680;2023-09-12T02:04:37;99820.28;;;20.71;89.33
80798;BME280;70202;52.238;10.680;2023-09-12T02:05:38;99810.03;;;20.62;89.30
80798;BME280;70202;52.238;10.680;2023-09-12T02:06:38;99819.19;;;20.63;89.23
80798;BME280;70202;52.238;10.680;2023-09-12T02:07:41;99838.63;;;20.72;89.26
80798;BME280;70202;52.238;10.680;2023-09-12T02:08:42;99831.34;;;20.71;89.51
80798;BME280;70202;52.238;10.680;2023-09-12T02:09:42;99813.50;;;20.64;89.28
80798;BME280;70202;52.238;10.680;2023-09-12T02:10:42;99824.94;;;20.71;89.40
80798;BME280;70202;52.238;10.680;2023-09-12T02:11:43;99827.69;;;20.71;89.44
80798;BME280;70202;52.238;10.680;2023-09-12T02:12:43;99834.25;;;20.70;89.45
80798;BME280;70202;52.238;10.680;2023-09-12T02:13:43;99831.13;;;20.63;89.05
80798;BME280;70202;52.238;10.680;2023-09-12T02:14:44;99845.44;;;20.68;89.43
80798;BME280;70202;52.238;10.680;2023-09-12T02:15:44;99822.63;;;20.55;89.54
80798;BME280;70202;52.238;10.680;2023-09-12T02:16:44;99818.88;;;20.56;89.24
80798;BME280;70202;52.238;10.680;2023-09-12T02:17:45;99821.66;;;20.56;89.32
80798;BME280;70202;52.238;10.680;2023-09-12T02:18:45;99833.91;;;20.63;89.14
80798;BME280;70202;52.238;10.680;2023-09-12T02:19:49;99802.16;;;20.46;89.28
80798;BME280;70202;52.238;10.680;2023-09-12T02:20:49;99822.78;;;20.54;89.23
80798;BME280;70202;52.238;10.680;2023-09-12T02:21:50;99829.44;;;20.51;89.42
80798;BME280;70202;52.238;10.680;2023-09-12T02:22:50;99824.22;;;20.48;89.42
80798;BME280;70202;52.238;10.680;2023-09-12T02:23:50;99846.56;;;20.56;89.35
80798;BME280;70202;52.238;10.680;2023-09-12T02:24:52;99834.38;;;20.47;89.38
80798;BME280;70202;52.238;10.680;2023-09-12T02:25:52;99850.59;;;20.52;89.37
80798;BME280;70202;52.238;10.680;2023-09-12T02:26:52;99845.69;;;20.44;89.61
80798;BME280;70202;52.238;10.680;2023-09-12T02:27:53;99838.03;;;20.48;89.50
80798;BME280;70202;52.238;10.680;2023-09-12T02:28:53;99842.56;;;20.49;89.41
80798;BME280;70202;52.238;10.680;2023-09-12T02:29:54;99833.88;;;20.42;89.65
80798;BME280;70202;52.238;10.680;2023-09-12T02:30:55;99847.31;;;20.47;89.50
80798;BME280;70202;52.238;10.680;2023-09-12T02:31:56;99829.75;;;20.37;89.66
80798;BME280;70202;52.238;10.680;2023-09-12T02:32:56;99842.47;;;20.39;89.68
80798;BME280;70202;52.238;10.680;2023-09-12T02:33:56;99862.16;;;20.46;89.56
80798;BME280;70202;52.238;10.680;2023-09-12T02:34:57;99839.69;;;20.39;89.73
80798;BME280;70202;52.238;10.680;2023-09-12T02:35:57;99837.41;;;20.44;89.85
80798;BME280;70202;52.238;10.680;2023-09-12T02:36:58;99831.25;;;20.41;89.73
80798;BME280;70202;52.238;10.680;2023-09-12T02:37:58;99822.34;;;20.37;89.55
80798;BME280;70202;52.238;10.680;2023-09-12T02:38:58;99833.16;;;20.40;89.75
80798;BME280;70202;52.238;10.680;2023-09-12T02:39:59;99829.16;;;20.33;89.77
80798;BME280;70202;52.238;10.680;2023-09-12T02:40:59;99817.88;;;20.25;89.98
80798;BME280;70202;52.238;10.680;2023-09-12T02:42:00;99838.00;;;20.27;89.93
80798;BME280;70202;52.238;10.680;2023-09-12T02:43:00;99834.69;;;20.33;89.98
80798;BME280;70202;52.238;10.680;2023-09-12T02:44:00;99851.16;;;20.35;89.99
80798;BME280;70202;52.238;10.680;2023-09-12T02:45:01;99847.50;;;20.34;90.05
80798;BME280;70202;52.238;10.680;2023-09-12T02:46:01;99831.59;;;20.27;89.96
80798;BME280;70202;52.238;10.680;2023-09-12T02:47:03;99826.31;;;20.23;90.29
80798;BME280;70202;52.238;10.680;2023-09-12T02:48:04;99845.03;;;20.31;90.29
80798;BME280;70202;52.238;10.680;2023-09-12T02:49:04;99831.09;;;20.21;90.47
80798;BME280;70202;52.238;10.680;2023-09-12T02:50:04;99844.41;;;20.28;90.43
80798;BME280;70202;52.238;10.680;2023-09-12T02:51:05;99832.88;;;20.22;90.64
80798;BME280;70202;52.238;10.680;2023-09-12T02:52:05;99822.94;;;20.20;90.32
80798;BME280;70202;52.238;10.680;2023-09-12T02:53:06;99833.44;;;20.26;90.49
80798;BME280;70202;52.238;10.680;2023-09-12T02:54:06;99822.78;;;20.21;90.53
80798;BME280;70202;52.238;10.680;2023-09-12T02:55:07;99829.59;;;20.17;90.58
80798;BME280;70202;52.238;10.680;2023-09-12T02:56:07;99826.47;;;20.22;90.63
80798;BME280;70202;52.238;10.680;2023-09-12T02:57:07;99819.69;;;20.15;90.75
80798;BME280;70202;52.238;10.680;2023-09-12T02:58:08;99819.81;;;20.13;90.81
80798;BME280;70202;52.238;10.680;2023-09-12T02:59:08;99834.88;;;20.20;91.03
80798;BME280;70202;52.238;10.680;2023-09-12T03:00:09;99838.66;;;20.19;90.97
80798;BME280;70202;52.238;10.680;2023-09-12T03:01:17;99842.44;;;20.18;91.15
80798;BME280;70202;52.238;10.680;2023-09-12T03:02:18;99837.88;;;20.17;91.07
80798;BME280;70202;52.238;10.680;2023-09-12T03:03:19;99838.03;;;20.16;90.96
80798;BME280;70202;52.238;10.680;2023-09-12T03:04:19;99836.28;;;20.15;91.19
80798;BME280;70202;52.238;10.680;2023-09-12T03:05:19;99817.84;;;20.04;91.09
80798;BME280;70202;52.238;10.680;2023-09-12T03:06:20;99823.38;;;20.04;91.04
80798;BME280;70202;52.238;10.680;2023-09-12T03:07:20;99837.56;;;20.11;91.07
80798;BME280;70202;52.238;10.680;2023-09-12T03:08:21;99830.28;;;20.10;91.17
80798;BME280;70202;52.238;10.680;2023-09-12T03:09:21;99834.94;;;20.09;91.28
80798;BME280;70202;52.238;10.680;2023-09-12T03:10:22;99837.81;;;20.08;91.03
80798;BME280;70202;52.238;10.680;2023-09-12T03:11:25;99814.75;;;19.97;91.67
80798;BME280;70202;52.238;10.680;2023-09-12T03:12:25;99828.78;;;20.06;91.60
80798;BME280;70202;52.238;10.680;2023-09-12T03:13:26;99816.63;;;19.97;91.45
80798;BME280;70202;52.238;10.680;2023-09-12T03:14:27;99822.63;;;20.02;91.36
80798;BME280;70202;52.238;10.680;2023-09-12T03:15:28;99830.06;;;20.02;91.36
80798;BME280;70202;52.238;10.680;2023-09-12T03:16:29;99829.19;;;20.01;91.26
80798;BME280;70202;52.238;10.680;2023-09-12T03:17:29;99811.75;;;19.89;91.24
80798;BME280;70202;52.238;10.680;2023-09-12T03:18:29;99833.22;;;19.97;91.49
80798;BME280;70202;52.238;10.680;2023-09-12T03:19:30;99815.53;;;19.88;91.36
80798;BME280;70202;52.238;10.680;2023-09-12T03:20:30;99833.47;;;19.94;91.57
80798;BME280;70202;52.238;10.680;2023-09-12T03:21:31;99840.03;;;19.93;91.21
80798;BME280;70202;52.238;10.680;2023-09-12T03:22:31;99829.47;;;19.87;91.45
80798;BME280;70202;52.238;10.680;2023-09-12T03:23:33;99850.31;;;19.91;91.47
80798;BME280;70202;52.238;10.680;2023-09-12T03:24:33;99850.47;;;19.89;91.77
80798;BME280;70202;52.238;10.680;2023-09-12T03:25:37;99855.97;;;19.89;91.78
80798;BME280;70202;52.238;10.680;2023-09-12T03:26:40;99857.00;;;19.88;91.37
80798;BME280;70202;52.238;10.680;2023-09-12T03:27:40;99842.19;;;19.78;91.69
80798;BME280;70202;52.238;10.680;2023-09-12T03:28:41;99835.06;;;19.76;91.79
80798;BME280;70202;52.238;10.680;2023-09-12T03:29:41;99852.59;;;19.86;91.90
80798;BME280;70202;52.238;10.680;2023-09-12T03:30:42;99829.63;;;19.74;91.81
80798;BME280;70202;52.238;10.680;2023-09-12T03:31:42;99838.69;;;19.76;91.96
80798;BME280;70202;52.238;10.680;2023-09-12T03:32:42;99839.66;;;19.75;92.03
80798;BME280;70202;52.238;10.680;2023-09-12T03:33:43;99844.84;;;19.80;92.14
80798;BME280;70202;52.238;10.680;2023-09-12T03:34:48;99839.19;;;19.70;92.16
80798;BME280;70202;52.238;10.680;2023-09-12T03:35:48;99850.63;;;19.77;92.22
80798;BME280;70202;52.238;10.680;2023-09-12T03:36:48;99863.66;;;19.75;92.14
80798;BME280;70202;52.238;10.680;2023-09-12T03:37:49;99846.84;;;19.66;92.19
80798;BME280;70202;52.238;10.680;2023-09-12T03:38:49;99869.34;;;19.73;92.00
80798;BME280;70202;52.238;10.680;2023-09-12T03:39:50;99871.47;;;19.69;92.10
80798;BME280;70202;52.238;10.680;2023-09-12T03:40:50;99863.94;;;19.60;92.09
80798;BME280;70202;52.238;10.680;2023-09-12T03:41:50;99873.34;;;19.58;92.14
80798;BME280;70202;52.238;10.680;2023-09-12T03:42:51;99874.63;;;19.65;92.39
80798;BME280;70202;52.238;10.680;2023-09-12T03:43:53;99866.19;;;19.66;92.29
80798;BME280;70202;52.238;10.680;2023-09-12T03:44:54;99872.75;;;19.65;92.46
80798;BME280;70202;52.238;10.680;2023-09-12T03:45:55;99865.97;;;19.58;92.53
80798;BME280;70202;52.238;10.680;2023-09-12T03:46:55;99878.50;;;19.62;92.69
80798;BME280;70202;52.238;10.680;2023-09-12T03:47:55;99880.88;;;19.56;92.58
80798;BME280;70202;52.238;10.680;2023-09-12T03:48:56;99882.28;;;19.61;92.83
80798;BME280;70202;52.238;10.680;2023-09-12T03:49:56;99874.97;;;19.60;92.91
80798;BME280;70202;52.238;10.680;2023-09-12T03:50:57;99877.75;;;19.60;93.01
80798;BME280;70202;52.238;10.680;2023-09-12T03:51:57;99887.91;;;19.60;92.97
80798;BME280;70202;52.238;10.680;2023-09-12T03:52:57;99873.72;;;19.53;92.99
80798;BME280;70202;52.238;10.680;2023-09-12T03:53:58;99881.63;;;19.58;92.79
80798;BME280;70202;52.238;10.680;2023-09-12T03:54:58;99877.00;;;19.58;93.00
80798;BME280;70202;52.238;10.680;2023-09-12T03:56:01;99875.63;;;19.53;92.98
80798;BME280;70202;52.238;10.680;2023-09-12T03:57:01;99883.50;;;19.57;93.25
80798;BME280;70202;52.238;10.680;2023-09-12T03:58:01;99886.28;;;19.57;93.28
80798;BME280;70202;52.238;10.680;2023-09-12T03:59:02;99874.88;;;19.51;93.17
80798;BME280;70202;52.238;10.680;2023-09-12T04:00:03;99881.03;;;19.54;93.31
80798;BME280;70202;52.238;10.680;2023-09-12T04:01:06;99892.44;;;19.49;93.45
80798;BME280;70202;52.238;10.680;2023-09-12T04:02:08;99876.25;;;19.45;93.13
80798;BME280;70202;52.238;10.680;2023-09-12T04:03:08;99868.84;;;19.45;93.29
80798;BME280;70202;52.238;10.680;2023-09-12T04:04:09;99872.59;;;19.44;93.52
80798;BME280;70202;52.238;10.680;2023-09-12T04:05:09;99879.53;;;19.50;93.40
80798;BME280;70202;52.238;10.680;2023-09-12T04:06:10;99876.50;;;19.53;93.53
80798;BME280;70202;52.238;10.680;2023-09-12T04:07:10;99884.78;;;19.53;93.29
80798;BME280;70202;52.238;10.680;2023-09-12T04:08:11;99846.13;;;19.31;93.44
80798;BME280;70202;52.238;10.680;2023-09-12T04:09:11;99862.69;;;19.42;93.46
80798;BME280;70202;52.238;10.680;2023-09-12T04:10:12;99877.75;;;19.49;93.45
80798;BME280;70202;52.238;10.680;2023-09-12T04:11:12;99861.06;;;19.39;93.32
80798;BME280;70202;52.238;10.680;2023-09-12T04:12:13;99872.34;;;19.47;93.34
80798;BME280;70202;52.238;10.680;2023-09-12T04:13:13;99858.06;;;19.31;93.40
80798;BME280;70202;52.238;10.680;2023-09-12T04:14:14;99879.00;;;19.45;93.37
80798;BME280;70202;52.238;10.680;2023-09-12T04:15:14;99887.28;;;19.45;93.34
80798;BME280;70202;52.238;10.680;2023-09-12T04:16:15;99888.31;;;19.44;93.46
80798;BME280;70202;52.238;10.680;2023-09-12T04:17:15;99887.44;;;19.43;93.55
80798;BME280;70202;52.238;10.680;2023-09-12T04:18:16;99906.75;;;19.43;93.81
80798;BME280;70202;52.238;10.680;2023-09-12T04:19:16;99838.25;;;19.04;93.44
80798;BME280;70202;52.238;10.680;2023-09-12T04:20:16;99894.84;;;19.43;93.92
80798;BME280;70202;52.238;10.680;2023-09-12T04:21:17;99893.97;;;19.42;93.59
80798;BME280;70202;52.238;10.680;2023-09-12T04:22:17;99887.56;;;19.42;93.65
80798;BME280;70202;52.238;10.680;2023-09-12T04:23:17;99876.28;;;19.34;93.66
80798;BME280;70202;52.238;10.680;2023-09-12T04:24:18;99896.09;;;19.39;93.73
80798;BME280;70202;52.238;10.680;2023-09-12T04:25:18;99876.00;;;19.26;93.73
80798;BME280;70202;52.238;10.680;2023-09-12T04:26:20;99900.84;;;19.37;93.46
80798;BME280;70202;52.238;10.680;2023-09-12T04:27:20;99862.19;;;19.14;93.93
80798;BME280;70202;52.238;10.680;2023-09-12T04:28:20;99897.22;;;19.36;94.07
80798;BME280;70202;52.238;10.680;2023-09-12T04:29:21;99872.47;;;19.23;93.75
80798;BME280;70202;52.238;10.680;2023-09-12T04:30:21;99891.97;;;19.33;93.72
80798;BME280;70202;52.238;10.680;2023-09-12T04:31:22;99881.53;;;19.26;93.85
80798;BME280;70202;52.238;10.680;2023-09-12T04:32:22;99878.16;;;19.22;93.76
80798;BME280;70202;52.238;10.680;2023-09-12T04:33:23;99894.84;;;19.32;93.82
80798;BME280;70202;52.238;10.680;2023-09-12T04:34:24;99888.44;;;19.20;93.82
80798;BME280;70202;52.238;10.680;2023-09-12T04:35:24;99898.72;;;19.18;94.05
80798;BME280;70202;52.238;10.680;2023-09-12T04:36:25;99920.84;;;19.29;94.11
80798;BME280;70202;52.238;10.680;2023-09-12T04:37:25;99913.03;;;19.23;94.04
80798;BME280;70202;52.238;10.680;2023-09-12T04:38:26;99908.66;;;19.20;93.85
80798;BME280;70202;52.238;10.680;2023-09-12T04:39:26;99910.66;;;19.18;94.14
80798;BME280;70202;52.238;10.680;2023-09-12T04:40:27;99911.41;;;19.20;94.14
80798;BME280;70202;52.238;10.680;2023-09-12T04:41:27;99939.41;;;19.27;94.30
80798;BME280;70202;52.238;10.680;2023-09-12T04:42:27;99942.16;;;19.27;93.96
80798;BME280;70202;52.238;10.680;2023-09-12T04:43:28;99922.31;;;19.11;94.23
80798;BME280;70202;52.238;10.680;2023-09-12T04:44:28;99944.06;;;19.27;94.20
80798;BME280;70202;52.238;10.680;2023-09-12T04:45:29;99955.09;;;19.27;94.12
80798;BME280;70202;52.238;10.680;2023-09-12T04:46:29;99938.78;;;19.12;94.04
80798;BME280;70202;52.238;10.680;2023-09-12T04:47:29;99964.25;;;19.27;94.31
80798;BME280;70202;52.238;10.680;2023-09-12T04:48:30;99977.97;;;19.29;94.13
80798;BME280;70202;52.238;10.680;2023-09-12T04:49:30;99960.59;;;19.15;94.21
80798;BME280;70202;52.238;10.680;2023-09-12T04:50:31;99988.00;;;19.30;94.26
80798;BME280;70202;52.238;10.680;2023-09-12T04:51:31;99969.50;;;19.19;94.12
80798;BME280;70202;52.238;10.680;2023-09-12T04:52:31;99981.59;;;19.29;94.04
80798;BME280;70202;52.238;10.680;2023-09-12T04:53:32;99976.06;;;19.29;94.24
80798;BME280;70202;52.238;10.680;2023-09-12T04:54:35;99959.09;;;19.22;94.63
80798;BME280;70202;52.238;10.680;2023-09-12T04:55:37;99955.34;;;19.23;94.50
80798;BME280;70202;52.238;10.680;2023-09-12T04:56:37;99958.97;;;19.24;95.04
80798;BME280;70202;52.238;10.680;2023-09-12T04:57:38;99968.66;;;19.30;94.37
80798;BME280;70202;52.238;10.680;2023-09-12T04:58:38;99950.97;;;19.21;94.69
80798;BME280;70202;52.238;10.680;2023-09-12T04:59:38;99954.09;;;19.28;94.71
80798;BME280;70202;52.238;10.680;2023-09-12T05:00:39;99963.41;;;19.38;94.63
80798;BME280;70202;52.238;10.680;2023-09-12T05:01:40;99953.84;;;19.31;94.62
80798;BME280;70202;52.238;10.680;2023-09-12T05:02:41;99941.16;;;19.28;94.57
80798;BME280;70202;52.238;10.680;2023-09-12T05:03:41;99958.63;;;19.40;94.51
80798;BME280;70202;52.238;10.680;2023-09-12T05:04:42;99947.06;;;19.35;94.60
80798;BME280;70202;52.238;10.680;2023-09-12T05:05:45;99953.97;;;19.40;94.64
80798;BME280;70202;52.238;10.680;2023-09-12T05:06:45;99929.00;;;19.31;94.63
80798;BME280;70202;52.238;10.680;2023-09-12T05:07:46;99937.91;;;19.34;94.70
80798;BME280;70202;52.238;10.680;2023-09-12T05:08:47;99943.06;;;19.39;94.62
80798;BME280;70202;52.238;10.680;2023-09-12T05:09:48;99923.47;;;19.31;94.87
80798;BME280;70202;52.238;10.680;2023-09-12T05:10:48;99928.13;;;19.30;94.82
80798;BME280;70202;52.238;10.680;2023-09-12T05:11:49;99939.28;;;19.40;95.29
80798;BME280;70202;52.238;10.680;2023-09-12T05:12:50;99924.09;;;19.34;94.98
80798;BME280;70202;52.238;10.680;2023-09-12T05:13:51;99925.47;;;19.40;94.83
80798;BME280;70202;52.238;10.680;2023-09-12T05:14:51;99919.94;;;19.40;94.93
80798;BME280;70202;52.238;10.680;2023-09-12T05:15:52;99918.94;;;19.41;95.07
80798;BME280;70202;52.238;10.680;2023-09-12T05:16:52;99919.84;;;19.41;95.21
80798;BME280;70202;52.238;10.680;2023-09-12T05:17:53;99924.34;;;19.42;95.26
80798;BME280;70202;52.238;10.680;2023-09-12T05:18:53;99920.59;;;19.43;95.12
80798;BME280;70202;52.238;10.680;2023-09-12T05:19:55;99915.06;;;19.43;94.98
80798;BME280;70202;52.238;10.680;2023-09-12T05:20:55;99893.72;;;19.34;95.13
80798;BME280;70202;52.238;10.680;2023-09-12T05:21:55;99911.19;;;19.46;95.22
80798;BME280;70202;52.238;10.680;2023-09-12T05:22:56;99919.47;;;19.46;95.20
80798;BME280;70202;52.238;10.680;2023-09-12T05:23:56;99919.19;;;19.49;94.97